sensor_id;sensor_type;location;lat;lon;timestamp;temperature;humidity
57652;DHT22;43480;53.116;6.734;2022-08-19T00:02:20;15.50;99.90
57652;DHT22;43480;53.116;6.734;2022-08-19T00:04:45;15.60;99.90
57652;DHT22;43480;53.116;6.734;2022-08-19T00:07:13;15.60;99.90
57652;DHT22;43480;53.116;6.734;2022-08-19T00:09:39;15.60;99.90
57652;DHT22;43480;53.116;6.734;2022-08-19T00:12:04;15.50;99.90
57652;DHT22;43480;53.116;6.734;2022-08-19T00:14:30;15.40;99.90
57652;DHT22;43480;53.116;6.734;2022-08-19T00:16:59;15.30;99.90
57652;DHT22;43480;53.116;6.734;2022-08-19T00:19:24;15.30;99.90
57652;DHT22;43480;53.116;6.734;2022-08-19T00:21:50;15.30;99.90
57652;DHT22;43480;53.116;6.734;2022-08-19T00:24:16;15.30;99.90
57652;DHT22;43480;53.116;6.734;2022-08-19T00:26:42;15.30;99.90
57652;DHT22;43480;53.116;6.734;2022-08-19T00:29:08;15.30;99.90
57652;DHT22;43480;53.116;6.734;2022-08-19T00:31:34;15.30;99.90
57652;DHT22;43480;53.116;6.734;2022-08-19T00:33:59;15.30;99.90
57652;DHT22;43480;53.116;6.734;2022-08-19T00:36:25;15.30;99.90
57652;DHT22;43480;53.116;6.734;2022-08-19T00:38:51;15.20;99.90
57652;DHT22;43480;53.116;6.734;2022-08-19T00:41:18;15.10;99.90
57652;DHT22;43480;53.116;6.734;2022-08-19T00:43:56;14.90;99.90
57652;DHT22;43480;53.116;6.734;2022-08-19T00:46:22;14.80;99.90
57652;DHT22;43480;53.116;6.734;2022-08-19T00:48:48;14.80;99.90
57652;DHT22;43480;53.116;6.734;2022-08-19T00:51:13;14.70;99.90
57652;DHT22;43480;53.116;6.734;2022-08-19T00:53:39;14.80;99.90
57652;DHT22;43480;53.116;6.734;2022-08-19T00:56:04;14.70;99.90
57652;DHT22;43480;53.116;6.734;2022-08-19T00:58:32;14.70;99.90
57652;DHT22;43480;53.116;6.734;2022-08-19T01:00:58;14.70;99.90
57652;DHT22;43480;53.116;6.734;2022-08-19T01:03:25;14.70;99.90
57652;DHT22;43480;53.116;6.734;2022-08-19T01:05:50;14.70;99.90
57652;DHT22;43480;53.116;6.734;2022-08-19T01:08:17;14.70;99.90
57652;DHT22;43480;53.116;6.734;2022-08-19T01:10:44;14.70;99.90
57652;DHT22;43480;53.116;6.734;2022-08-19T01:13:10;14.60;99.90
57652;DHT22;43480;53.116;6.734;2022-08-19T01:15:46;14.50;99.90
57652;DHT22;43480;53.116;6.734;2022-08-19T01:18:14;14.50;99.90
57652;DHT22;43480;53.116;6.734;2022-08-19T01:20:41;14.40;99.90
57652;DHT22;43480;53.116;6.734;2022-08-19T01:23:07;14.40;99.90
57652;DHT22;43480;53.116;6.734;2022-08-19T01:25:35;14.30;99.90
57652;DHT22;43480;53.116;6.734;2022-08-19T01:28:02;14.30;99.90
57652;DHT22;43480;53.116;6.734;2022-08-19T01:30:28;14.40;99.90
57652;DHT22;43480;53.116;6.734;2022-08-19T01:32:54;14.50;99.90
57652;DHT22;43480;53.116;6.734;2022-08-19T01:35:20;14.50;99.90
57652;DHT22;43480;53.116;6.734;2022-08-19T01:37:52;14.50;99.90
57652;DHT22;43480;53.116;6.734;2022-08-19T01:40:19;14.50;99.90
57652;DHT22;43480;53.116;6.734;2022-08-19T01:42:49;14.50;99.90
57652;DHT22;43480;53.116;6.734;2022-08-19T01:45:15;14.40;99.90
57652;DHT22;43480;53.116;6.734;2022-08-19T01:47:40;14.50;99.90
57652;DHT22;43480;53.116;6.734;2022-08-19T01:50:07;14.40;99.90
57652;DHT22;43480;53.116;6.734;2022-08-19T01:52:37;14.40;99.90
57652;DHT22;43480;53.116;6.734;2022-08-19T01:55:04;14.30;99.90
57652;DHT22;43480;53.116;6.734;2022-08-19T01:57:30;14.30;99.90
57652;DHT22;43480;53.116;6.734;2022-08-19T01:59:55;14.30;99.90
57652;DHT22;43480;53.116;6.734;2022-08-19T02:02:22;14.30;99.90
57652;DHT22;43480;53.116;6.734;2022-08-19T02:04:47;14.20;99.90
57652;DHT22;43480;53.116;6.734;2022-08-19T02:07:13;14.20;99.90
57652;DHT22;43480;53.116;6.734;2022-08-19T02:09:38;14.20;99.90
57652;DHT22;43480;53.116;6.734;2022-08-19T02:12:04;14.10;99.90
57652;DHT22;43480;53.116;6.734;2022-08-19T02:14:30;14.10;99.90
57652;DHT22;43480;53.116;6.734;2022-08-19T02:16:55;14.10;99.90
57652;DHT22;43480;53.116;6.734;2022-08-19T02:19:21;14.10;99.90
57652;DHT22;43480;53.116;6.734;2022-08-19T02:21:47;14.10;99.90
57652;DHT22;43480;53.116;6.734;2022-08-19T02:24:13;14.10;99.90
57652;DHT22;43480;53.116;6.734;2022-08-19T02:26:38;14.00;99.90
57652;DHT22;43480;53.116;6.734;2022-08-19T02:29:04;13.90;99.90
57652;DHT22;43480;53.116;6.734;2022-08-19T02:31:29;13.90;99.90
57652;DHT22;43480;53.116;6.734;2022-08-19T02:33:55;13.90;99.90
57652;DHT22;43480;53.116;6.734;2022-08-19T02:36:21;13.90;99.90
57652;DHT22;43480;53.116;6.734;2022-08-19T02:38:47;13.80;99.90
57652;DHT22;43480;53.116;6.734;2022-08-19T02:41:18;13.80;99.90
57652;DHT22;43480;53.116;6.734;2022-08-19T02:43:44;13.90;99.90
57652;DHT22;43480;53.116;6.734;2022-08-19T02:46:20;13.80;99.90
57652;DHT22;43480;53.116;6.734;2022-08-19T02:48:50;13.80;99.90
57652;DHT22;43480;53.116;6.734;2022-08-19T02:51:20;13.80;99.90
57652;DHT22;43480;53.116;6.734;2022-08-19T02:53:46;13.80;99.90
57652;DHT22;43480;53.116;6.734;2022-08-19T02:56:11;13.80;99.90
57652;DHT22;43480;53.116;6.734;2022-08-19T02:58:37;13.80;99.90
57652;DHT22;43480;53.116;6.734;2022-08-19T03:01:03;13.80;99.90
57652;DHT22;43480;53.116;6.734;2022-08-19T03:03:28;13.90;99.90
57652;DHT22;43480;53.116;6.734;2022-08-19T03:06:10;13.90;99.90
57652;DHT22;43480;53.116;6.734;2022-08-19T03:08:36;14.00;99.90
57652;DHT22;43480;53.116;6.734;2022-08-19T03:11:02;14.00;99.90
57652;DHT22;43480;53.116;6.734;2022-08-19T03:13:28;14.00;99.90
57652;DHT22;43480;53.116;6.734;2022-08-19T03:15:53;14.00;99.90
57652;DHT22;43480;53.116;6.734;2022-08-19T03:18:19;14.00;99.90
57652;DHT22;43480;53.116;6.734;2022-08-19T03:20:45;14.00;99.90
57652;DHT22;43480;53.116;6.734;2022-08-19T03:23:11;14.00;99.90
57652;DHT22;43480;53.116;6.734;2022-08-19T03:25:38;14.00;99.90
57652;DHT22;43480;53.116;6.734;2022-08-19T03:28:06;14.00;99.90
57652;DHT22;43480;53.116;6.734;2022-08-19T03:30:32;14.00;99.90
57652;DHT22;43480;53.116;6.734;2022-08-19T03:32:58;14.00;99.90
57652;DHT22;43480;53.116;6.734;2022-08-19T03:35:24;14.00;99.90
57652;DHT22;43480;53.116;6.734;2022-08-19T03:37:49;14.00;99.90
57652;DHT22;43480;53.116;6.734;2022-08-19T03:40:16;14.00;99.90
57652;DHT22;43480;53.116;6.734;2022-08-19T03:42:41;14.00;99.90
57652;DHT22;43480;53.116;6.734;2022-08-19T03:45:07;14.00;99.90
57652;DHT22;43480;53.116;6.734;2022-08-19T03:47:33;13.90;99.90
57652;DHT22;43480;53.116;6.734;2022-08-19T03:49:58;13.90;99.90
57652;DHT22;43480;53.116;6.734;2022-08-19T03:52:24;13.90;99.90
57652;DHT22;43480;53.116;6.734;2022-08-19T03:54:49;13.90;99.90
57652;DHT22;43480;53.116;6.734;2022-08-19T03:57:15;13.90;99.90
57652;DHT22;43480;53.116;6.734;2022-08-19T03:59:40;13.80;99.90
57652;DHT22;43480;53.116;6.734;2022-08-19T04:02:08;13.80;99.90
57652;DHT22;43480;53.116;6.734;2022-08-19T04:04:34;13.80;99.90
57652;DHT22;43480;53.116;6.734;2022-08-19T04:07:00;13.70;99.90
57652;DHT22;43480;53.116;6.734;2022-08-19T04:09:25;13.70;99.90
57652;DHT22;43480;53.116;6.734;2022-08-19T04:11:52;13.60;99.90
57652;DHT22;43480;53.116;6.734;2022-08-19T04:14:23;13.50;99.90
57652;DHT22;43480;53.116;6.734;2022-08-19T04:16:50;13.50;99.90
57652;DHT22;43480;53.116;6.734;2022-08-19T04:19:17;13.50;99.90
57652;DHT22;43480;53.116;6.734;2022-08-19T04:21:44;13.50;99.90
57652;DHT22;43480;53.116;6.734;2022-08-19T04:24:10;13.50;99.90
57652;DHT22;43480;53.116;6.734;2022-08-19T04:26:36;13.50;99.90
57652;DHT22;43480;53.116;6.734;2022-08-19T04:29:21;13.50;99.90
57652;DHT22;43480;53.116;6.734;2022-08-19T04:31:49;13.50;99.90
57652;DHT22;43480;53.116;6.734;2022-08-19T04:34:16;13.40;99.90
57652;DHT22;43480;53.116;6.734;2022-08-19T04:36:43;13.40;99.90
57652;DHT22;43480;53.116;6.734;2022-08-19T04:39:10;13.30;99.90
57652;DHT22;43480;53.116;6.734;2022-08-19T04:41:37;13.30;99.90
57652;DHT22;43480;53.116;6.734;2022-08-19T04:44:21;13.30;99.90
57652;DHT22;43480;53.116;6.734;2022-08-19T04:46:48;13.20;99.90
57652;DHT22;43480;53.116;6.734;2022-08-19T04:49:14;13.20;99.90
57652;DHT22;43480;53.116;6.734;2022-08-19T04:51:41;13.20;99.90
57652;DHT22;43480;53.116;6.734;2022-08-19T04:54:07;13.20;99.90
57652;DHT22;43480;53.116;6.734;2022-08-19T04:56:33;13.20;99.90
57652;DHT22;43480;53.116;6.734;2022-08-19T04:58:59;13.30;99.90
57652;DHT22;43480;53.116;6.734;2022-08-19T05:01:28;13.30;99.90
57652;DHT22;43480;53.116;6.734;2022-08-19T05:03:55;13.30;99.90
57652;DHT22;43480;53.116;6.734;2022-08-19T05:06:22;13.40;99.90
57652;DHT22;43480;53.116;6.734;2022-08-19T05:08:48;13.40;99.90
57652;DHT22;43480;53.116;6.734;2022-08-19T05:13:43;13.60;99.90
57652;DHT22;43480;53.116;6.734;2022-08-19T05:16:10;13.60;99.90
57652;DHT22;43480;53.116;6.734;2022-08-19T05:18:36;13.70;99.90
57652;DHT22;43480;53.116;6.734;2022-08-19T05:21:20;13.90;99.90
57652;DHT22;43480;53.116;6.734;2022-08-19T05:24:05;14.00;99.90
57652;DHT22;43480;53.116;6.734;2022-08-19T05:26:37;14.10;99.90
57652;DHT22;43480;53.116;6.734;2022-08-19T05:29:03;14.20;99.90
57652;DHT22;43480;53.116;6.734;2022-08-19T05:31:29;14.30;99.90
57652;DHT22;43480;53.116;6.734;2022-08-19T05:33:55;14.40;99.90
57652;DHT22;43480;53.116;6.734;2022-08-19T05:36:21;14.60;99.90
57652;DHT22;43480;53.116;6.734;2022-08-19T05:38:46;14.60;99.90
57652;DHT22;43480;53.116;6.734;2022-08-19T05:41:14;14.70;99.90
57652;DHT22;43480;53.116;6.734;2022-08-19T05:43:40;14.80;99.90
57652;DHT22;43480;53.116;6.734;2022-08-19T05:46:06;15.00;99.90
57652;DHT22;43480;53.116;6.734;2022-08-19T05:48:32;15.00;99.90
57652;DHT22;43480;53.116;6.734;2022-08-19T05:50:58;15.10;99.90
57652;DHT22;43480;53.116;6.734;2022-08-19T05:53:24;15.10;99.90
57652;DHT22;43480;53.116;6.734;2022-08-19T05:55:50;15.20;99.90
57652;DHT22;43480;53.116;6.734;2022-08-19T05:58:15;15.20;99.90
57652;DHT22;43480;53.116;6.734;2022-08-19T06:00:42;15.30;99.90
57652;DHT22;43480;53.116;6.734;2022-08-19T06:03:08;15.40;99.90
57652;DHT22;43480;53.116;6.734;2022-08-19T06:05:33;15.40;99.90
57652;DHT22;43480;53.116;6.734;2022-08-19T06:07:59;15.50;99.90
57652;DHT22;43480;53.116;6.734;2022-08-19T06:10:24;15.60;99.90
57652;DHT22;43480;53.116;6.734;2022-08-19T06:12:51;15.70;99.90
57652;DHT22;43480;53.116;6.734;2022-08-19T06:15:17;15.80;99.90
57652;DHT22;43480;53.116;6.734;2022-08-19T06:17:42;16.00;99.90
57652;DHT22;43480;53.116;6.734;2022-08-19T06:20:10;16.10;99.90
57652;DHT22;43480;53.116;6.734;2022-08-19T06:22:40;16.20;99.90
57652;DHT22;43480;53.116;6.734;2022-08-19T06:25:06;16.40;99.90
57652;DHT22;43480;53.116;6.734;2022-08-19T06:27:32;16.50;99.90
57652;DHT22;43480;53.116;6.734;2022-08-19T06:29:59;16.60;99.90
57652;DHT22;43480;53.116;6.734;2022-08-19T06:32:24;16.70;99.90
57652;DHT22;43480;53.116;6.734;2022-08-19T06:34:50;16.80;99.90
57652;DHT22;43480;53.116;6.734;2022-08-19T06:37:15;17.00;99.90
57652;DHT22;43480;53.116;6.734;2022-08-19T06:39:42;17.10;99.90
57652;DHT22;43480;53.116;6.734;2022-08-19T06:42:08;17.20;99.90
57652;DHT22;43480;53.116;6.734;2022-08-19T06:44:37;17.30;99.90
57652;DHT22;43480;53.116;6.734;2022-08-19T06:47:04;17.30;99.90
57652;DHT22;43480;53.116;6.734;2022-08-19T06:49:30;17.40;99.90
57652;DHT22;43480;53.116;6.734;2022-08-19T06:51:58;17.50;99.90
57652;DHT22;43480;53.116;6.734;2022-08-19T06:54:24;17.60;99.90
57652;DHT22;43480;53.116;6.734;2022-08-19T06:56:50;17.70;99.90
57652;DHT22;43480;53.116;6.734;2022-08-19T06:59:17;17.80;99.90
57652;DHT22;43480;53.116;6.734;2022-08-19T07:01:47;17.90;99.90
57652;DHT22;43480;53.116;6.734;2022-08-19T07:04:14;17.90;99.90
57652;DHT22;43480;53.116;6.734;2022-08-19T07:06:41;18.00;99.90
57652;DHT22;43480;53.116;6.734;2022-08-19T07:09:07;18.10;99.90
57652;DHT22;43480;53.116;6.734;2022-08-19T07:11:33;18.20;99.90
57652;DHT22;43480;53.116;6.734;2022-08-19T07:13:59;18.30;99.90
57652;DHT22;43480;53.116;6.734;2022-08-19T07:16:24;18.50;99.90
57652;DHT22;43480;53.116;6.734;2022-08-19T07:18:50;18.60;99.90
57652;DHT22;43480;53.116;6.734;2022-08-19T07:21:21;18.70;99.90
57652;DHT22;43480;53.116;6.734;2022-08-19T07:23:47;18.80;99.90
57652;DHT22;43480;53.116;6.734;2022-08-19T07:26:17;18.90;99.90
57652;DHT22;43480;53.116;6.734;2022-08-19T07:28:44;19.00;99.90
57652;DHT22;43480;53.116;6.734;2022-08-19T07:31:11;19.10;99.90
57652;DHT22;43480;53.116;6.734;2022-08-19T07:33:38;19.20;99.90
57652;DHT22;43480;53.116;6.734;2022-08-19T07:36:05;19.40;99.90
57652;DHT22;43480;53.116;6.734;2022-08-19T07:38:31;19.50;99.90
57652;DHT22;43480;53.116;6.734;2022-08-19T07:40:57;19.60;99.90
57652;DHT22;43480;53.116;6.734;2022-08-19T07:43:22;19.70;99.90
57652;DHT22;43480;53.116;6.734;2022-08-19T07:45:53;19.80;99.90
57652;DHT22;43480;53.116;6.734;2022-08-19T07:48:25;19.80;99.90
57652;DHT22;43480;53.116;6.734;2022-08-19T07:50:54;19.90;99.90
57652;DHT22;43480;53.116;6.734;2022-08-19T07:53:22;20.10;99.90
57652;DHT22;43480;53.116;6.734;2022-08-19T07:55:48;20.10;99.90
57652;DHT22;43480;53.116;6.734;2022-08-19T07:58:15;20.20;99.90
57652;DHT22;43480;53.116;6.734;2022-08-19T08:00:41;20.40;99.90
57652;DHT22;43480;53.116;6.734;2022-08-19T08:03:07;20.50;99.90
57652;DHT22;43480;53.116;6.734;2022-08-19T08:05:33;20.70;99.90
57652;DHT22;43480;53.116;6.734;2022-08-19T08:08:18;20.80;99.90
57652;DHT22;43480;53.116;6.734;2022-08-19T08:11:02;20.90;99.90
57652;DHT22;43480;53.116;6.734;2022-08-19T08:13:28;21.00;99.90
57652;DHT22;43480;53.116;6.734;2022-08-19T08:15:54;21.10;99.90
57652;DHT22;43480;53.116;6.734;2022-08-19T08:18:19;21.20;99.90
57652;DHT22;43480;53.116;6.734;2022-08-19T08:20:46;21.30;99.90
57652;DHT22;43480;53.116;6.734;2022-08-19T08:23:11;21.40;99.90
57652;DHT22;43480;53.116;6.734;2022-08-19T08:25:54;21.40;99.90
57652;DHT22;43480;53.116;6.734;2022-08-19T08:28:21;21.60;99.90
57652;DHT22;43480;53.116;6.734;2022-08-19T08:30:47;21.60;99.90
57652;DHT22;43480;53.116;6.734;2022-08-19T08:33:14;21.70;99.90
57652;DHT22;43480;53.116;6.734;2022-08-19T08:35:42;21.80;99.90
57652;DHT22;43480;53.116;6.734;2022-08-19T08:38:07;21.90;99.90
57652;DHT22;43480;53.116;6.734;2022-08-19T08:40:46;21.90;99.90
57652;DHT22;43480;53.116;6.734;2022-08-19T08:43:26;22.00;99.90
57652;DHT22;43480;53.116;6.734;2022-08-19T08:46:00;22.10;99.90
57652;DHT22;43480;53.116;6.734;2022-08-19T08:51:21;22.30;99.90
57652;DHT22;43480;53.116;6.734;2022-08-19T08:53:49;22.40;99.90
57652;DHT22;43480;53.116;6.734;2022-08-19T08:56:16;22.50;99.90
57652;DHT22;43480;53.116;6.734;2022-08-19T08:58:48;22.70;99.90
57652;DHT22;43480;53.116;6.734;2022-08-19T09:01:14;22.80;99.90
57652;DHT22;43480;53.116;6.734;2022-08-19T09:03:40;22.90;99.90
57652;DHT22;43480;53.116;6.734;2022-08-19T09:06:11;23.00;99.90
57652;DHT22;43480;53.116;6.734;2022-08-19T09:08:39;23.10;99.90
57652;DHT22;43480;53.116;6.734;2022-08-19T09:11:09;23.10;99.90
57652;DHT22;43480;53.116;6.734;2022-08-19T09:16:02;23.30;99.90
57652;DHT22;43480;53.116;6.734;2022-08-19T09:18:47;23.30;99.90
57652;DHT22;43480;53.116;6.734;2022-08-19T09:21:13;23.30;99.90
57652;DHT22;43480;53.116;6.734;2022-08-19T09:23:38;23.40;99.90
57652;DHT22;43480;53.116;6.734;2022-08-19T09:26:11;23.50;99.90
57652;DHT22;43480;53.116;6.734;2022-08-19T09:28:42;23.60;99.90
57652;DHT22;43480;53.116;6.734;2022-08-19T09:31:12;23.70;99.90
57652;DHT22;43480;53.116;6.734;2022-08-19T09:33:38;23.80;99.90
57652;DHT22;43480;53.116;6.734;2022-08-19T09:36:08;23.90;99.90
57652;DHT22;43480;53.116;6.734;2022-08-19T09:38:34;23.90;99.90
57652;DHT22;43480;53.116;6.734;2022-08-19T09:41:04;24.00;99.90
57652;DHT22;43480;53.116;6.734;2022-08-19T09:43:30;24.10;99.90
57652;DHT22;43480;53.116;6.734;2022-08-19T09:45:56;24.10;99.90
57652;DHT22;43480;53.116;6.734;2022-08-19T09:48:21;24.20;99.90
57652;DHT22;43480;53.116;6.734;2022-08-19T09:50:47;24.30;99.90
57652;DHT22;43480;53.116;6.734;2022-08-19T09:53:12;24.20;99.90
57652;DHT22;43480;53.116;6.734;2022-08-19T09:55:41;24.30;99.90
57652;DHT22;43480;53.116;6.734;2022-08-19T09:58:07;24.50;99.90
57652;DHT22;43480;53.116;6.734;2022-08-19T10:00:33;24.60;99.90
57652;DHT22;43480;53.116;6.734;2022-08-19T10:02:58;24.70;99.90
57652;DHT22;43480;53.116;6.734;2022-08-19T10:05:24;24.80;99.90
57652;DHT22;43480;53.116;6.734;2022-08-19T10:08:09;25.00;99.90
57652;DHT22;43480;53.116;6.734;2022-08-19T10:10:35;25.00;99.90
57652;DHT22;43480;53.116;6.734;2022-08-19T10:13:00;25.10;99.90
57652;DHT22;43480;53.116;6.734;2022-08-19T10:15:26;25.20;99.90
57652;DHT22;43480;53.116;6.734;2022-08-19T10:17:51;25.30;99.90
57652;DHT22;43480;53.116;6.734;2022-08-19T10:20:17;25.40;99.10
57652;DHT22;43480;53.116;6.734;2022-08-19T10:22:43;25.50;99.00
57652;DHT22;43480;53.116;6.734;2022-08-19T10:25:08;25.60;99.80
57652;DHT22;43480;53.116;6.734;2022-08-19T10:27:34;25.70;99.40
57652;DHT22;43480;53.116;6.734;2022-08-19T10:29:59;25.70;99.00
57652;DHT22;43480;53.116;6.734;2022-08-19T10:32:25;25.90;98.50
57652;DHT22;43480;53.116;6.734;2022-08-19T10:34:51;26.00;99.20
57652;DHT22;43480;53.116;6.734;2022-08-19T10:37:17;26.10;97.80
57652;DHT22;43480;53.116;6.734;2022-08-19T10:39:45;26.30;97.00
57652;DHT22;43480;53.116;6.734;2022-08-19T10:42:11;26.30;96.80
57652;DHT22;43480;53.116;6.734;2022-08-19T10:44:38;26.50;95.90
57652;DHT22;43480;53.116;6.734;2022-08-19T10:47:04;26.50;96.00
57652;DHT22;43480;53.116;6.734;2022-08-19T10:49:30;26.60;97.10
57652;DHT22;43480;53.116;6.734;2022-08-19T10:51:56;26.70;95.60
57652;DHT22;43480;53.116;6.734;2022-08-19T10:54:40;26.80;96.10
57652;DHT22;43480;53.116;6.734;2022-08-19T10:57:24;26.90;94.90
57652;DHT22;43480;53.116;6.734;2022-08-19T10:59:55;27.10;95.20
57652;DHT22;43480;53.116;6.734;2022-08-19T11:02:21;27.30;94.80
57652;DHT22;43480;53.116;6.734;2022-08-19T11:04:46;27.50;95.70
57652;DHT22;43480;53.116;6.734;2022-08-19T11:07:12;27.50;93.00
57652;DHT22;43480;53.116;6.734;2022-08-19T11:09:40;27.70;92.30
57652;DHT22;43480;53.116;6.734;2022-08-19T11:12:06;27.80;91.50
57652;DHT22;43480;53.116;6.734;2022-08-19T11:14:33;28.00;91.80
57652;DHT22;43480;53.116;6.734;2022-08-19T11:16:59;28.20;90.00
57652;DHT22;43480;53.116;6.734;2022-08-19T11:19:24;28.30;90.70
57652;DHT22;43480;53.116;6.734;2022-08-19T11:21:51;28.20;90.20
57652;DHT22;43480;53.116;6.734;2022-08-19T11:24:19;28.10;90.30
57652;DHT22;43480;53.116;6.734;2022-08-19T11:26:45;28.00;89.70
57652;DHT22;43480;53.116;6.734;2022-08-19T11:29:12;28.00;89.30
57652;DHT22;43480;53.116;6.734;2022-08-19T11:31:40;28.00;91.40
57652;DHT22;43480;53.116;6.734;2022-08-19T11:34:07;28.00;90.00
57652;DHT22;43480;53.116;6.734;2022-08-19T11:36:33;27.70;89.50
57652;DHT22;43480;53.116;6.734;2022-08-19T11:39:00;27.70;90.60
57652;DHT22;43480;53.116;6.734;2022-08-19T11:41:25;27.80;91.10
57652;DHT22;43480;53.116;6.734;2022-08-19T11:43:51;28.00;88.70
57652;DHT22;43480;53.116;6.734;2022-08-19T11:46:19;28.10;89.80
57652;DHT22;43480;53.116;6.734;2022-08-19T11:48:44;28.40;90.30
57652;DHT22;43480;53.116;6.734;2022-08-19T11:51:11;28.40;90.50
57652;DHT22;43480;53.116;6.734;2022-08-19T11:53:38;28.00;89.60
57652;DHT22;43480;53.116;6.734;2022-08-19T11:56:04;27.60;88.40
57652;DHT22;43480;53.116;6.734;2022-08-19T11:58:29;27.30;90.60
57652;DHT22;43480;53.116;6.734;2022-08-19T12:00:55;27.50;92.10
57652;DHT22;43480;53.116;6.734;2022-08-19T12:03:21;27.80;90.30
57652;DHT22;43480;53.116;6.734;2022-08-19T12:05:47;28.00;90.80
57652;DHT22;43480;53.116;6.734;2022-08-19T12:08:13;27.60;87.70
57652;DHT22;43480;53.116;6.734;2022-08-19T12:10:39;27.60;90.60
57652;DHT22;43480;53.116;6.734;2022-08-19T12:13:05;27.40;90.90
57652;DHT22;43480;53.116;6.734;2022-08-19T12:15:35;27.30;91.20
57652;DHT22;43480;53.116;6.734;2022-08-19T12:18:01;27.20;91.20
57652;DHT22;43480;53.116;6.734;2022-08-19T12:20:26;27.40;91.70
57652;DHT22;43480;53.116;6.734;2022-08-19T12:22:52;28.00;91.40
57652;DHT22;43480;53.116;6.734;2022-08-19T12:25:17;28.50;90.90
57652;DHT22;43480;53.116;6.734;2022-08-19T12:27:43;29.00;89.50
57652;DHT22;43480;53.116;6.734;2022-08-19T12:30:09;29.20;82.70
57652;DHT22;43480;53.116;6.734;2022-08-19T12:32:35;29.10;85.50
57652;DHT22;43480;53.116;6.734;2022-08-19T12:35:00;28.80;87.30
57652;DHT22;43480;53.116;6.734;2022-08-19T12:37:26;28.60;88.70
57652;DHT22;43480;53.116;6.734;2022-08-19T12:39:52;28.40;81.50
57652;DHT22;43480;53.116;6.734;2022-08-19T12:42:17;28.10;82.20
57652;DHT22;43480;53.116;6.734;2022-08-19T12:44:43;27.80;85.00
57652;DHT22;43480;53.116;6.734;2022-08-19T12:47:10;27.60;87.30
57652;DHT22;43480;53.116;6.734;2022-08-19T12:49:36;27.40;86.30
57652;DHT22;43480;53.116;6.734;2022-08-19T12:52:04;27.30;88.70
57652;DHT22;43480;53.116;6.734;2022-08-19T12:54:29;27.20;90.10
57652;DHT22;43480;53.116;6.734;2022-08-19T12:56:56;27.10;89.20
57652;DHT22;43480;53.116;6.734;2022-08-19T12:59:21;27.00;89.50
57652;DHT22;43480;53.116;6.734;2022-08-19T13:01:47;26.90;90.00
57652;DHT22;43480;53.116;6.734;2022-08-19T13:04:12;26.90;91.00
57652;DHT22;43480;53.116;6.734;2022-08-19T13:06:38;26.90;89.50
57652;DHT22;43480;53.116;6.734;2022-08-19T13:09:04;26.90;91.40
57652;DHT22;43480;53.116;6.734;2022-08-19T13:11:30;27.10;91.40
57652;DHT22;43480;53.116;6.734;2022-08-19T13:14:00;27.30;90.10
57652;DHT22;43480;53.116;6.734;2022-08-19T13:16:26;27.60;90.50
57652;DHT22;43480;53.116;6.734;2022-08-19T13:18:53;27.90;87.30
57652;DHT22;43480;53.116;6.734;2022-08-19T13:21:19;28.10;83.30
57652;DHT22;43480;53.116;6.734;2022-08-19T13:23:45;28.00;82.00
57652;DHT22;43480;53.116;6.734;2022-08-19T13:26:11;28.10;83.70
57652;DHT22;43480;53.116;6.734;2022-08-19T13:28:38;28.10;84.00
57652;DHT22;43480;53.116;6.734;2022-08-19T13:31:23;28.00;82.10
57652;DHT22;43480;53.116;6.734;2022-08-19T13:34:07;27.90;84.50
57652;DHT22;43480;53.116;6.734;2022-08-19T13:36:33;27.90;85.50
57652;DHT22;43480;53.116;6.734;2022-08-19T13:38:59;27.80;84.00
57652;DHT22;43480;53.116;6.734;2022-08-19T13:41:24;27.70;86.00
57652;DHT22;43480;53.116;6.734;2022-08-19T13:43:50;27.60;85.70
57652;DHT22;43480;53.116;6.734;2022-08-19T13:46:16;27.40;85.70
57652;DHT22;43480;53.116;6.734;2022-08-19T13:48:41;27.10;86.60
57652;DHT22;43480;53.116;6.734;2022-08-19T13:51:07;26.80;87.00
57652;DHT22;43480;53.116;6.734;2022-08-19T13:53:38;26.60;90.00
57652;DHT22;43480;53.116;6.734;2022-08-19T13:56:05;26.50;91.30
57652;DHT22;43480;53.116;6.734;2022-08-19T13:58:30;26.30;92.20
57652;DHT22;43480;53.116;6.734;2022-08-19T14:00:57;26.10;92.50
57652;DHT22;43480;53.116;6.734;2022-08-19T14:03:22;25.90;93.60
57652;DHT22;43480;53.116;6.734;2022-08-19T14:05:48;25.70;93.60
57652;DHT22;43480;53.116;6.734;2022-08-19T14:08:14;25.70;95.10
57652;DHT22;43480;53.116;6.734;2022-08-19T14:10:39;25.60;96.00
57652;DHT22;43480;53.116;6.734;2022-08-19T14:13:07;25.60;97.30
57652;DHT22;43480;53.116;6.734;2022-08-19T14:15:33;25.30;98.40
57652;DHT22;43480;53.116;6.734;2022-08-19T14:17:59;25.10;99.90
57652;DHT22;43480;53.116;6.734;2022-08-19T14:20:25;24.90;99.90
57652;DHT22;43480;53.116;6.734;2022-08-19T14:22:50;24.60;99.90
57652;DHT22;43480;53.116;6.734;2022-08-19T14:25:17;24.40;99.90
57652;DHT22;43480;53.116;6.734;2022-08-19T14:27:43;24.30;99.90
57652;DHT22;43480;53.116;6.734;2022-08-19T14:30:11;24.20;99.90
57652;DHT22;43480;53.116;6.734;2022-08-19T14:32:37;24.20;99.90
57652;DHT22;43480;53.116;6.734;2022-08-19T14:35:03;24.20;99.90
57652;DHT22;43480;53.116;6.734;2022-08-19T14:37:28;24.30;99.90
57652;DHT22;43480;53.116;6.734;2022-08-19T14:39:54;24.40;99.90
57652;DHT22;43480;53.116;6.734;2022-08-19T14:42:19;24.50;99.90
57652;DHT22;43480;53.116;6.734;2022-08-19T14:44:45;24.40;99.90
57652;DHT22;43480;53.116;6.734;2022-08-19T14:47:10;24.30;99.90
57652;DHT22;43480;53.116;6.734;2022-08-19T14:49:36;24.30;99.90
57652;DHT22;43480;53.116;6.734;2022-08-19T14:52:03;24.30;99.90
57652;DHT22;43480;53.116;6.734;2022-08-19T14:54:29;24.20;99.90
57652;DHT22;43480;53.116;6.734;2022-08-19T14:56:55;24.10;99.90
57652;DHT22;43480;53.116;6.734;2022-08-19T14:59:21;24.10;99.90
57652;DHT22;43480;53.116;6.734;2022-08-19T15:01:46;24.10;99.90
57652;DHT22;43480;53.116;6.734;2022-08-19T15:04:12;24.10;99.90
57652;DHT22;43480;53.116;6.734;2022-08-19T15:06:37;24.10;99.90
57652;DHT22;43480;53.116;6.734;2022-08-19T15:09:03;24.00;99.90
57652;DHT22;43480;53.116;6.734;2022-08-19T15:11:29;24.00;99.90
57652;DHT22;43480;53.116;6.734;2022-08-19T15:13:55;23.90;99.90
57652;DHT22;43480;53.116;6.734;2022-08-19T15:16:21;23.80;99.90
57652;DHT22;43480;53.116;6.734;2022-08-19T15:18:49;23.80;99.90
57652;DHT22;43480;53.116;6.734;2022-08-19T15:21:16;23.70;99.90
57652;DHT22;43480;53.116;6.734;2022-08-19T15:23:43;23.70;99.90
57652;DHT22;43480;53.116;6.734;2022-08-19T15:26:09;23.70;99.90
57652;DHT22;43480;53.116;6.734;2022-08-19T15:28:35;23.60;99.90
57652;DHT22;43480;53.116;6.734;2022-08-19T15:31:01;23.60;99.90
57652;DHT22;43480;53.116;6.734;2022-08-19T15:33:27;23.60;99.90
57652;DHT22;43480;53.116;6.734;2022-08-19T15:35:52;23.60;99.90
57652;DHT22;43480;53.116;6.734;2022-08-19T15:38:18;23.60;99.90